Terminal Aerodrome Forecast
Issued by NWS Charleston, WV

Current Version | Previous Version | Graphics & Text | Print | Product List | Glossary On
Versions: 1 2 3 4 5 6 7 8 9 10 11 12 13 14 15 16 17 18 19 20 21 22 23 24
000
FTUS41 KRLX 061735
TAFPKB
TAF
KPKB 061735Z 0618/0718 09006KT 6SM -RA OVC035
     FM062100 16009KT P6SM OVC008
     FM062300 17008KT P6SM OVC010
     FM070700 28008KT P6SM BKN015
     FM071700 26004KT P6SM SCT025=

USA.gov is the U.S. government's official web portal to all federal, state and local government web resources and services.